sensor_id;sensor_type;location;lat;lon;timestamp;pressure;altitude;pressure_sealevel;temperature;humidity
14232;BME280;7200;52.194;9.900;2023-04-12T00:01:23;99602.69;;;7.93;100.00
14232;BME280;7200;52.194;9.900;2023-04-12T00:03:48;99603.97;;;8.06;100.00
14232;BME280;7200;52.194;9.900;2023-04-12T00:06:15;99623.28;;;8.04;100.00
14232;BME280;7200;52.194;9.900;2023-04-12T00:08:41;99588.66;;;7.94;100.00
14232;BME280;7200;52.194;9.900;2023-04-12T00:11:10;99624.66;;;8.14;100.00
14232;BME280;7200;52.194;9.900;2023-04-12T00:13:36;99593.19;;;8.12;100.00
14232;BME280;7200;52.194;9.900;2023-04-12T00:16:01;99586.09;;;8.14;100.00
14232;BME280;7200;52.194;9.900;2023-04-12T00:18:26;99557.38;;;8.10;100.00
14232;BME280;7200;52.194;9.900;2023-04-12T00:20:52;99554.94;;;8.05;100.00
14232;BME280;7200;52.194;9.900;2023-04-12T00:23:17;99541.13;;;8.00;100.00
14232;BME280;7200;52.194;9.900;2023-04-12T00:25:43;99569.34;;;8.17;100.00
14232;BME280;7200;52.194;9.900;2023-04-12T00:28:08;99512.00;;;8.06;100.00
14232;BME280;7200;52.194;9.900;2023-04-12T00:30:34;99505.72;;;8.10;100.00
14232;BME280;7200;52.194;9.900;2023-04-12T00:32:59;99497.03;;;8.08;100.00
14232;BME280;7200;52.194;9.900;2023-04-12T00:35:25;99502.47;;;8.04;100.00
14232;BME280;7200;52.194;9.900;2023-04-12T00:37:50;99506.50;;;8.12;100.00
14232;BME280;7200;52.194;9.900;2023-04-12T00:40:15;99513.94;;;8.23;100.00
14232;BME280;7200;52.194;9.900;2023-04-12T00:42:41;99473.19;;;8.13;100.00
14232;BME280;7200;52.194;9.900;2023-04-12T00:45:07;99450.38;;;7.93;100.00
14232;BME280;7200;52.194;9.900;2023-04-12T00:47:34;99481.06;;;8.13;100.00
14232;BME280;7200;52.194;9.900;2023-04-12T00:50:01;99456.75;;;8.08;100.00
14232;BME280;7200;52.194;9.900;2023-04-12T00:52:27;99445.28;;;8.10;100.00
14232;BME280;7200;52.194;9.900;2023-04-12T00:54:58;99418.84;;;7.93;100.00
14232;BME280;7200;52.194;9.900;2023-04-12T00:57:23;99479.56;;;8.28;100.00
14232;BME280;7200;52.194;9.900;2023-04-12T00:59:49;99438.25;;;8.11;100.00
14232;BME280;7200;52.194;9.900;2023-04-12T01:02:15;99439.03;;;8.13;100.00
14232;BME280;7200;52.194;9.900;2023-04-12T01:04:41;99460.97;;;8.32;100.00
14232;BME280;7200;52.194;9.900;2023-04-12T01:15:28;99406.72;;;8.31;100.00
14232;BME280;7200;52.194;9.900;2023-04-12T01:18:01;99383.75;;;8.16;100.00
14232;BME280;7200;52.194;9.900;2023-04-12T01:20:34;99402.66;;;8.24;100.00
14232;BME280;7200;52.194;9.900;2023-04-12T01:23:33;99400.75;;;8.28;100.00
14232;BME280;7200;52.194;9.900;2023-04-12T01:29:03;99455.94;;;8.28;100.00
14232;BME280;7200;52.194;9.900;2023-04-12T01:31:34;99375.88;;;7.95;100.00
14232;BME280;7200;52.194;9.900;2023-04-12T01:34:02;99445.75;;;8.20;100.00
14232;BME280;7200;52.194;9.900;2023-04-12T01:36:28;99445.13;;;8.13;100.00
14232;BME280;7200;52.194;9.900;2023-04-12T01:38:55;99419.19;;;8.06;100.00
14232;BME280;7200;52.194;9.900;2023-04-12T01:41:20;99442.19;;;8.21;100.00
14232;BME280;7200;52.194;9.900;2023-04-12T01:43:46;99464.72;;;8.27;100.00
14232;BME280;7200;52.194;9.900;2023-04-12T01:46:15;99475.00;;;8.33;100.00
14232;BME280;7200;52.194;9.900;2023-04-12T01:48:48;99403.19;;;8.12;100.00
14232;BME280;7200;52.194;9.900;2023-04-12T01:51:26;99387.22;;;8.16;100.00
14232;BME280;7200;52.194;9.900;2023-04-12T01:54:06;99420.91;;;8.27;100.00
14232;BME280;7200;52.194;9.900;2023-04-12T01:56:37;99412.44;;;8.21;100.00
14232;BME280;7200;52.194;9.900;2023-04-12T01:59:04;99387.22;;;8.16;100.00
14232;BME280;7200;52.194;9.900;2023-04-12T02:01:30;99387.47;;;8.31;100.00
14232;BME280;7200;52.194;9.900;2023-04-12T02:04:00;99382.06;;;8.34;100.00
14232;BME280;7200;52.194;9.900;2023-04-12T02:06:26;99370.13;;;8.47;100.00
14232;BME280;7200;52.194;9.900;2023-04-12T02:08:57;99299.16;;;8.27;100.00
14232;BME280;7200;52.194;9.900;2023-04-12T02:11:22;99334.09;;;8.49;100.00
14232;BME280;7200;52.194;9.900;2023-04-12T02:13:48;99291.19;;;8.49;100.00
14232;BME280;7200;52.194;9.900;2023-04-12T02:16:13;99313.53;;;8.78;100.00
14232;BME280;7200;52.194;9.900;2023-04-12T02:18:38;99304.91;;;8.74;100.00
14232;BME280;7200;52.194;9.900;2023-04-12T02:21:05;99306.78;;;8.72;100.00
14232;BME280;7200;52.194;9.900;2023-04-12T02:23:31;99292.06;;;8.68;100.00
14232;BME280;7200;52.194;9.900;2023-04-12T02:25:56;99324.53;;;8.86;100.00
14232;BME280;7200;52.194;9.900;2023-04-12T02:28:21;99302.34;;;8.73;100.00
14232;BME280;7200;52.194;9.900;2023-04-12T02:30:47;99316.28;;;8.75;100.00
14232;BME280;7200;52.194;9.900;2023-04-12T02:33:12;99282.31;;;8.70;100.00
14232;BME280;7200;52.194;9.900;2023-04-12T02:35:39;99307.63;;;8.73;100.00
14232;BME280;7200;52.194;9.900;2023-04-12T02:38:05;99308.59;;;8.89;100.00
14232;BME280;7200;52.194;9.900;2023-04-12T02:40:33;99290.47;;;8.83;100.00
14232;BME280;7200;52.194;9.900;2023-04-12T02:42:59;99264.72;;;8.90;100.00
14232;BME280;7200;52.194;9.900;2023-04-12T02:45:25;99276.59;;;8.99;100.00
14232;BME280;7200;52.194;9.900;2023-04-12T02:47:50;99317.38;;;9.07;100.00
14232;BME280;7200;52.194;9.900;2023-04-12T02:50:15;99265.88;;;8.84;100.00
14232;BME280;7200;52.194;9.900;2023-04-12T02:52:41;99276.09;;;8.90;100.00
14232;BME280;7200;52.194;9.900;2023-04-12T02:55:06;99303.88;;;8.96;100.00
14232;BME280;7200;52.194;9.900;2023-04-12T02:57:32;99310.94;;;8.95;100.00
14232;BME280;7200;52.194;9.900;2023-04-12T02:59:57;99319.53;;;8.99;100.00
14232;BME280;7200;52.194;9.900;2023-04-12T03:02:23;99316.19;;;8.95;100.00
14232;BME280;7200;52.194;9.900;2023-04-12T03:04:48;99317.63;;;9.03;100.00
14232;BME280;7200;52.194;9.900;2023-04-12T03:07:17;99331.66;;;9.21;100.00
14232;BME280;7200;52.194;9.900;2023-04-12T03:09:44;99349.78;;;9.27;100.00
14232;BME280;7200;52.194;9.900;2023-04-12T03:12:10;99322.97;;;9.19;100.00
14232;BME280;7200;52.194;9.900;2023-04-12T03:14:35;99353.84;;;9.15;100.00
14232;BME280;7200;52.194;9.900;2023-04-12T03:17:00;99339.50;;;9.03;100.00
14232;BME280;7200;52.194;9.900;2023-04-12T03:19:26;99325.88;;;8.95;100.00
14232;BME280;7200;52.194;9.900;2023-04-12T03:21:52;99349.97;;;9.05;100.00
14232;BME280;7200;52.194;9.900;2023-04-12T03:24:18;99309.00;;;8.99;100.00
14232;BME280;7200;52.194;9.900;2023-04-12T03:26:43;99322.81;;;9.04;100.00
14232;BME280;7200;52.194;9.900;2023-04-12T03:29:08;99305.59;;;8.97;100.00
14232;BME280;7200;52.194;9.900;2023-04-12T03:31:34;99321.72;;;9.08;100.00
14232;BME280;7200;52.194;9.900;2023-04-12T03:34:00;99331.72;;;9.19;100.00
14232;BME280;7200;52.194;9.900;2023-04-12T03:36:25;99333.50;;;9.19;100.00
14232;BME280;7200;52.194;9.900;2023-04-12T03:38:53;99363.22;;;9.21;100.00
14232;BME280;7200;52.194;9.900;2023-04-12T03:41:21;99366.50;;;9.26;100.00
14232;BME280;7200;52.194;9.900;2023-04-12T03:43:47;99339.59;;;9.19;100.00
14232;BME280;7200;52.194;9.900;2023-04-12T03:46:12;99356.88;;;9.25;100.00
14232;BME280;7200;52.194;9.900;2023-04-12T03:48:39;99322.34;;;9.13;100.00
14232;BME280;7200;52.194;9.900;2023-04-12T03:51:05;99352.56;;;9.24;100.00
14232;BME280;7200;52.194;9.900;2023-04-12T03:53:32;99354.94;;;9.28;100.00
14232;BME280;7200;52.194;9.900;2023-04-12T03:55:57;99338.38;;;9.26;100.00
14232;BME280;7200;52.194;9.900;2023-04-12T03:58:22;99339.94;;;9.30;100.00
14232;BME280;7200;52.194;9.900;2023-04-12T04:00:48;99294.19;;;9.15;100.00
14232;BME280;7200;52.194;9.900;2023-04-12T04:03:14;99256.09;;;9.05;100.00
14232;BME280;7200;52.194;9.900;2023-04-12T04:05:40;99219.19;;;8.89;100.00
14232;BME280;7200;52.194;9.900;2023-04-12T04:08:05;99224.97;;;8.96;100.00
14232;BME280;7200;52.194;9.900;2023-04-12T04:10:32;99212.75;;;8.95;100.00
14232;BME280;7200;52.194;9.900;2023-04-12T04:12:57;99249.13;;;9.04;100.00
14232;BME280;7200;52.194;9.900;2023-04-12T04:15:24;99249.75;;;9.09;100.00
14232;BME280;7200;52.194;9.900;2023-04-12T04:17:50;99243.06;;;9.02;100.00
14232;BME280;7200;52.194;9.900;2023-04-12T04:20:15;99273.16;;;9.15;100.00
14232;BME280;7200;52.194;9.900;2023-04-12T04:22:42;99254.03;;;9.12;100.00
14232;BME280;7200;52.194;9.900;2023-04-12T04:25:07;99247.91;;;9.29;100.00
14232;BME280;7200;52.194;9.900;2023-04-12T04:27:33;99182.34;;;9.07;100.00
14232;BME280;7200;52.194;9.900;2023-04-12T04:30:02;99196.53;;;9.04;100.00
14232;BME280;7200;52.194;9.900;2023-04-12T04:32:29;99165.94;;;9.02;100.00
14232;BME280;7200;52.194;9.900;2023-04-12T04:34:55;99166.72;;;9.04;100.00
14232;BME280;7200;52.194;9.900;2023-04-12T04:37:20;99122.47;;;9.12;100.00
14232;BME280;7200;52.194;9.900;2023-04-12T04:39:46;99105.78;;;9.29;100.00
14232;BME280;7200;52.194;9.900;2023-04-12T04:42:11;99095.09;;;9.32;100.00
14232;BME280;7200;52.194;9.900;2023-04-12T04:44:37;99111.69;;;9.50;100.00
14232;BME280;7200;52.194;9.900;2023-04-12T04:47:02;99074.44;;;9.24;100.00
14232;BME280;7200;52.194;9.900;2023-04-12T04:49:29;99073.97;;;9.33;100.00
14232;BME280;7200;52.194;9.900;2023-04-12T04:51:54;99051.25;;;9.15;100.00
14232;BME280;7200;52.194;9.900;2023-04-12T04:54:19;99078.03;;;9.23;100.00
14232;BME280;7200;52.194;9.900;2023-04-12T04:56:45;99074.00;;;9.16;100.00
14232;BME280;7200;52.194;9.900;2023-04-12T04:59:10;99104.34;;;9.06;100.00
14232;BME280;7200;52.194;9.900;2023-04-12T05:01:35;99152.84;;;9.35;100.00
14232;BME280;7200;52.194;9.900;2023-04-12T05:04:01;99147.88;;;9.46;100.00
14232;BME280;7200;52.194;9.900;2023-04-12T05:06:27;99138.25;;;9.45;100.00
14232;BME280;7200;52.194;9.900;2023-04-12T05:08:52;99121.19;;;9.37;100.00
14232;BME280;7200;52.194;9.900;2023-04-12T05:11:18;99122.66;;;9.42;100.00
14232;BME280;7200;52.194;9.900;2023-04-12T05:13:44;99136.00;;;9.55;100.00
14232;BME280;7200;52.194;9.900;2023-04-12T05:16:10;99162.97;;;9.76;100.00
14232;BME280;7200;52.194;9.900;2023-04-12T05:18:36;99140.38;;;9.72;100.00
14232;BME280;7200;52.194;9.900;2023-04-12T05:21:04;99137.75;;;9.72;100.00
14232;BME280;7200;52.194;9.900;2023-04-12T05:23:34;99122.94;;;9.69;100.00
14232;BME280;7200;52.194;9.900;2023-04-12T05:26:00;99108.78;;;9.88;100.00
14232;BME280;7200;52.194;9.900;2023-04-12T05:28:26;99101.97;;;10.00;100.00
14232;BME280;7200;52.194;9.900;2023-04-12T05:30:51;99090.00;;;10.10;100.00
14232;BME280;7200;52.194;9.900;2023-04-12T05:33:16;99097.97;;;10.24;100.00
14232;BME280;7200;52.194;9.900;2023-04-12T05:35:42;99082.94;;;10.10;100.00
14232;BME280;7200;52.194;9.900;2023-04-12T05:38:07;99094.84;;;10.18;100.00
14232;BME280;7200;52.194;9.900;2023-04-12T05:40:32;99057.94;;;10.18;100.00
14232;BME280;7200;52.194;9.900;2023-04-12T05:43:00;99028.47;;;9.95;100.00
14232;BME280;7200;52.194;9.900;2023-04-12T05:45:25;98999.00;;;9.72;100.00
14232;BME280;7200;52.194;9.900;2023-04-12T05:47:51;99013.84;;;9.73;100.00
14232;BME280;7200;52.194;9.900;2023-04-12T05:50:17;98991.47;;;9.66;100.00
14232;BME280;7200;52.194;9.900;2023-04-12T05:52:42;99004.44;;;9.69;100.00
14232;BME280;7200;52.194;9.900;2023-04-12T05:55:08;99003.25;;;9.75;100.00
14232;BME280;7200;52.194;9.900;2023-04-12T05:57:33;98989.00;;;9.63;100.00
14232;BME280;7200;52.194;9.900;2023-04-12T05:59:58;98973.63;;;9.55;100.00
14232;BME280;7200;52.194;9.900;2023-04-12T06:02:23;98992.41;;;9.49;100.00
14232;BME280;7200;52.194;9.900;2023-04-12T06:04:50;99022.94;;;9.68;100.00
14232;BME280;7200;52.194;9.900;2023-04-12T06:07:16;99056.75;;;9.75;100.00
14232;BME280;7200;52.194;9.900;2023-04-12T06:09:43;99018.09;;;9.60;100.00
14232;BME280;7200;52.194;9.900;2023-04-12T06:12:08;99058.19;;;9.81;100.00
14232;BME280;7200;52.194;9.900;2023-04-12T06:14:33;99036.22;;;9.82;100.00
14232;BME280;7200;52.194;9.900;2023-04-12T06:16:59;99024.75;;;9.83;100.00
14232;BME280;7200;52.194;9.900;2023-04-12T06:19:24;99016.56;;;9.88;100.00
14232;BME280;7200;52.194;9.900;2023-04-12T06:21:50;99073.16;;;10.28;100.00
14232;BME280;7200;52.194;9.900;2023-04-12T06:24:15;99060.50;;;10.35;100.00
14232;BME280;7200;52.194;9.900;2023-04-12T06:26:40;99069.47;;;10.47;100.00
14232;BME280;7200;52.194;9.900;2023-04-12T06:29:10;99049.34;;;10.46;100.00
14232;BME280;7200;52.194;9.900;2023-04-12T06:31:36;99070.41;;;10.76;100.00
14232;BME280;7200;52.194;9.900;2023-04-12T06:36:30;99086.00;;;10.95;100.00
14232;BME280;7200;52.194;9.900;2023-04-12T06:38:55;99083.47;;;11.22;100.00
14232;BME280;7200;52.194;9.900;2023-04-12T06:41:21;99103.78;;;11.36;100.00
14232;BME280;7200;52.194;9.900;2023-04-12T06:43:46;99108.13;;;11.52;100.00
14232;BME280;7200;52.194;9.900;2023-04-12T06:46:11;99114.81;;;11.72;100.00
14232;BME280;7200;52.194;9.900;2023-04-12T06:48:39;99073.97;;;11.77;100.00
14232;BME280;7200;52.194;9.900;2023-04-12T06:51:05;99036.50;;;11.71;100.00
14232;BME280;7200;52.194;9.900;2023-04-12T06:53:30;99044.91;;;11.77;100.00
14232;BME280;7200;52.194;9.900;2023-04-12T06:55:55;99051.59;;;11.83;100.00
14232;BME280;7200;52.194;9.900;2023-04-12T06:58:21;99037.03;;;11.90;100.00
14232;BME280;7200;52.194;9.900;2023-04-12T07:00:46;99040.44;;;11.78;100.00
14232;BME280;7200;52.194;9.900;2023-04-12T07:03:11;99043.28;;;11.75;100.00
14232;BME280;7200;52.194;9.900;2023-04-12T07:05:37;99090.63;;;12.06;100.00
14232;BME280;7200;52.194;9.900;2023-04-12T07:08:03;99009.78;;;11.90;100.00
14232;BME280;7200;52.194;9.900;2023-04-12T07:10:29;99081.25;;;12.15;100.00
14232;BME280;7200;52.194;9.900;2023-04-12T07:12:54;99071.69;;;12.27;100.00
14232;BME280;7200;52.194;9.900;2023-04-12T07:15:21;99045.78;;;12.05;100.00
14232;BME280;7200;52.194;9.900;2023-04-12T07:17:46;99030.13;;;11.87;100.00
14232;BME280;7200;52.194;9.900;2023-04-12T07:20:11;99042.34;;;11.76;100.00
14232;BME280;7200;52.194;9.900;2023-04-12T07:22:37;99028.97;;;11.64;100.00
14232;BME280;7200;52.194;9.900;2023-04-12T07:25:03;99039.97;;;11.71;100.00
14232;BME280;7200;52.194;9.900;2023-04-12T07:27:30;99047.03;;;11.85;100.00
14232;BME280;7200;52.194;9.900;2023-04-12T07:29:55;99071.69;;;12.00;100.00
14232;BME280;7200;52.194;9.900;2023-04-12T07:32:22;99076.31;;;12.23;100.00
14232;BME280;7200;52.194;9.900;2023-04-12T07:34:47;99084.81;;;12.29;100.00
14232;BME280;7200;52.194;9.900;2023-04-12T07:37:12;99062.50;;;12.33;100.00
14232;BME280;7200;52.194;9.900;2023-04-12T07:39:37;99030.00;;;12.31;100.00
14232;BME280;7200;52.194;9.900;2023-04-12T07:42:04;99059.56;;;12.50;100.00
14232;BME280;7200;52.194;9.900;2023-04-12T07:44:30;99067.03;;;12.71;100.00
14232;BME280;7200;52.194;9.900;2023-04-12T07:46:55;99037.41;;;12.78;100.00
14232;BME280;7200;52.194;9.900;2023-04-12T07:49:21;99020.59;;;12.92;100.00
14232;BME280;7200;52.194;9.900;2023-04-12T07:51:46;99054.16;;;13.17;100.00
14232;BME280;7200;52.194;9.900;2023-04-12T07:54:11;99032.53;;;13.23;100.00
14232;BME280;7200;52.194;9.900;2023-04-12T07:56:37;99041.34;;;13.50;100.00
14232;BME280;7200;52.194;9.900;2023-04-12T07:59:02;98993.00;;;13.46;100.00
14232;BME280;7200;52.194;9.900;2023-04-12T08:01:28;98962.31;;;13.31;100.00
14232;BME280;7200;52.194;9.900;2023-04-12T08:03:54;98979.03;;;13.44;100.00
14232;BME280;7200;52.194;9.900;2023-04-12T08:06:19;98957.03;;;13.31;100.00
14232;BME280;7200;52.194;9.900;2023-04-12T08:08:45;98890.63;;;13.08;100.00
14232;BME280;7200;52.194;9.900;2023-04-12T08:11:10;98914.56;;;13.07;100.00
14232;BME280;7200;52.194;9.900;2023-04-12T08:13:35;98846.19;;;12.88;100.00
14232;BME280;7200;52.194;9.900;2023-04-12T08:16:01;98898.78;;;13.05;100.00
14232;BME280;7200;52.194;9.900;2023-04-12T08:18:27;98867.19;;;12.78;100.00
14232;BME280;7200;52.194;9.900;2023-04-12T08:20:54;98833.34;;;12.44;100.00
14232;BME280;7200;52.194;9.900;2023-04-12T08:23:19;98841.81;;;12.37;100.00
14232;BME280;7200;52.194;9.900;2023-04-12T08:25:44;98921.03;;;13.02;100.00
14232;BME280;7200;52.194;9.900;2023-04-12T08:28:10;98866.75;;;12.84;100.00
14232;BME280;7200;52.194;9.900;2023-04-12T08:30:35;98869.53;;;12.70;100.00
14232;BME280;7200;52.194;9.900;2023-04-12T08:33:00;98877.16;;;12.61;100.00
14232;BME280;7200;52.194;9.900;2023-04-12T08:35:26;98890.81;;;12.68;100.00
14232;BME280;7200;52.194;9.900;2023-04-12T08:37:51;98910.56;;;12.88;100.00
14232;BME280;7200;52.194;9.900;2023-04-12T08:40:17;98926.22;;;13.04;100.00
14232;BME280;7200;52.194;9.900;2023-04-12T08:42:42;98864.44;;;12.79;100.00
14232;BME280;7200;52.194;9.900;2023-04-12T08:45:09;98906.97;;;12.89;100.00
14232;BME280;7200;52.194;9.900;2023-04-12T08:47:38;98918.84;;;12.96;100.00
14232;BME280;7200;52.194;9.900;2023-04-12T08:50:05;98860.44;;;12.48;100.00
14232;BME280;7200;52.194;9.900;2023-04-12T08:52:34;98901.38;;;12.81;100.00
14232;BME280;7200;52.194;9.900;2023-04-12T08:55:03;98957.66;;;12.96;100.00
14232;BME280;7200;52.194;9.900;2023-04-12T08:57:29;98939.47;;;12.65;100.00
14232;BME280;7200;52.194;9.900;2023-04-12T08:59:58;98931.44;;;12.29;100.00
14232;BME280;7200;52.194;9.900;2023-04-12T09:02:24;98957.66;;;12.32;100.00
14232;BME280;7200;52.194;9.900;2023-04-12T09:04:49;98936.50;;;12.19;100.00
14232;BME280;7200;52.194;9.900;2023-04-12T09:07:16;98937.25;;;12.21;100.00
14232;BME280;7200;52.194;9.900;2023-04-12T09:09:43;98979.53;;;12.34;100.00
14232;BME280;7200;52.194;9.900;2023-04-12T09:12:09;98941.03;;;12.17;100.00
14232;BME280;7200;52.194;9.900;2023-04-12T09:14:34;98942.44;;;12.22;100.00
14232;BME280;7200;52.194;9.900;2023-04-12T09:17:00;98888.75;;;11.95;100.00
14232;BME280;7200;52.194;9.900;2023-04-12T09:19:35;98927.13;;;12.00;100.00
14232;BME280;7200;52.194;9.900;2023-04-12T09:22:01;98906.19;;;11.97;100.00
14232;BME280;7200;52.194;9.900;2023-04-12T09:24:27;98898.78;;;11.90;100.00
14232;BME280;7200;52.194;9.900;2023-04-12T09:27:05;98920.06;;;12.01;100.00
14232;BME280;7200;52.194;9.900;2023-04-12T09:29:32;98914.44;;;11.93;100.00
14232;BME280;7200;52.194;9.900;2023-04-12T09:32:06;98926.53;;;12.10;100.00
14232;BME280;7200;52.194;9.900;2023-04-12T09:34:33;98917.28;;;11.90;100.00
14232;BME280;7200;52.194;9.900;2023-04-12T09:37:15;98941.13;;;11.88;100.00
14232;BME280;7200;52.194;9.900;2023-04-12T09:39:41;98941.28;;;11.72;100.00
14232;BME280;7200;52.194;9.900;2023-04-12T09:42:10;98948.13;;;11.89;100.00
14232;BME280;7200;52.194;9.900;2023-04-12T09:44:36;98983.44;;;12.15;100.00
14232;BME280;7200;52.194;9.900;2023-04-12T09:47:02;98937.72;;;11.86;100.00
14232;BME280;7200;52.194;9.900;2023-04-12T09:49:42;98980.56;;;12.05;100.00
14232;BME280;7200;52.194;9.900;2023-04-12T09:52:09;98971.09;;;12.01;100.00
14232;BME280;7200;52.194;9.900;2023-04-12T09:54:42;98971.25;;;12.00;100.00
14232;BME280;7200;52.194;9.900;2023-04-12T09:57:08;98935.44;;;11.67;100.00
14232;BME280;7200;52.194;9.900;2023-04-12T09:59:36;98940.88;;;11.78;100.00
14232;BME280;7200;52.194;9.900;2023-04-12T10:02:06;98926.22;;;11.60;100.00
14232;BME280;7200;52.194;9.900;2023-04-12T10:04:33;98908.72;;;11.44;100.00
14232;BME280;7200;52.194;9.900;2023-04-12T10:06:59;98925.88;;;11.79;100.00
14232;BME280;7200;52.194;9.900;2023-04-12T10:09:25;98910.34;;;11.74;100.00
14232;BME280;7200;52.194;9.900;2023-04-12T10:11:52;98936.63;;;11.90;100.00
14232;BME280;7200;52.194;9.900;2023-04-12T10:14:19;98936.47;;;12.06;100.00
14232;BME280;7200;52.194;9.900;2023-04-12T10:16:46;98906.88;;;11.86;100.00
14232;BME280;7200;52.194;9.900;2023-04-12T10:19:12;98916.13;;;11.94;100.00
14232;BME280;7200;52.194;9.900;2023-04-12T10:21:38;98891.88;;;11.87;100.00
14232;BME280;7200;52.194;9.900;2023-04-12T10:24:04;98912.88;;;12.03;100.00
14232;BME280;7200;52.194;9.900;2023-04-12T10:26:31;98884.63;;;11.91;100.00
14232;BME280;7200;52.194;9.900;2023-04-12T10:31:48;98910.91;;;12.32;100.00
14232;BME280;7200;52.194;9.900;2023-04-12T10:34:14;98887.22;;;12.31;100.00
14232;BME280;7200;52.194;9.900;2023-04-12T10:37:00;98910.28;;;12.67;100.00
14232;BME280;7200;52.194;9.900;2023-04-12T10:39:44;98918.00;;;12.83;100.00
14232;BME280;7200;52.194;9.900;2023-04-12T10:42:24;98896.38;;;12.89;100.00
14232;BME280;7200;52.194;9.900;2023-04-12T10:44:52;98839.44;;;12.83;100.00
14232;BME280;7200;52.194;9.900;2023-04-12T10:50:27;98822.75;;;12.70;100.00
14232;BME280;7200;52.194;9.900;2023-04-12T10:55:38;98797.97;;;12.71;100.00
14232;BME280;7200;52.194;9.900;2023-04-12T10:58:03;98813.22;;;12.68;100.00
14232;BME280;7200;52.194;9.900;2023-04-12T11:03:23;98854.66;;;12.93;100.00
14232;BME280;7200;52.194;9.900;2023-04-12T11:06:03;98828.03;;;12.83;100.00
14232;BME280;7200;52.194;9.900;2023-04-12T11:08:29;98795.13;;;12.61;100.00
14232;BME280;7200;52.194;9.900;2023-04-12T11:11:06;98842.72;;;12.87;100.00
14232;BME280;7200;52.194;9.900;2023-04-12T11:13:42;98842.84;;;12.73;100.00
14232;BME280;7200;52.194;9.900;2023-04-12T11:16:10;98815.75;;;12.69;100.00
14232;BME280;7200;52.194;9.900;2023-04-12T11:18:38;98825.78;;;12.77;100.00
14232;BME280;7200;52.194;9.900;2023-04-12T11:21:04;98839.53;;;12.95;100.00
14232;BME280;7200;52.194;9.900;2023-04-12T11:23:31;98827.38;;;12.92;100.00
14232;BME280;7200;52.194;9.900;2023-04-12T11:25:57;98790.03;;;12.71;100.00
14232;BME280;7200;52.194;9.900;2023-04-12T11:28:23;98805.56;;;12.89;100.00
14232;BME280;7200;52.194;9.900;2023-04-12T11:30:53;98831.19;;;13.12;100.00
14232;BME280;7200;52.194;9.900;2023-04-12T11:33:38;98800.19;;;13.01;100.00
14232;BME280;7200;52.194;9.900;2023-04-12T11:36:05;98807.31;;;13.01;100.00
14232;BME280;7200;52.194;9.900;2023-04-12T11:38:31;98775.25;;;12.93;100.00
14232;BME280;7200;52.194;9.900;2023-04-12T11:40:57;98748.59;;;12.59;100.00
14232;BME280;7200;52.194;9.900;2023-04-12T11:43:22;98774.16;;;12.71;100.00
14232;BME280;7200;52.194;9.900;2023-04-12T11:45:47;98778.13;;;12.90;100.00
14232;BME280;7200;52.194;9.900;2023-04-12T11:48:13;98750.41;;;12.82;100.00
14232;BME280;7200;52.194;9.900;2023-04-12T11:50:38;98786.13;;;13.01;100.00
14232;BME280;7200;52.194;9.900;2023-04-12T11:53:11;98788.16;;;13.21;100.00
14232;BME280;7200;52.194;9.900;2023-04-12T11:55:36;98788.88;;;13.36;100.00
14232;BME280;7200;52.194;9.900;2023-04-12T11:58:02;98730.88;;;12.96;100.00
14232;BME280;7200;52.194;9.900;2023-04-12T12:00:27;98727.38;;;12.96;100.00
14232;BME280;7200;52.194;9.900;2023-04-12T12:02:55;98764.06;;;13.13;100.00
14232;BME280;7200;52.194;9.900;2023-04-12T12:05:20;98727.88;;;12.77;100.00
14232;BME280;7200;52.194;9.900;2023-04-12T12:07:46;98743.16;;;12.97;100.00
14232;BME280;7200;52.194;9.900;2023-04-12T12:10:11;98746.34;;;12.90;100.00
14232;BME280;7200;52.194;9.900;2023-04-12T12:12:37;98770.59;;;13.20;100.00
14232;BME280;7200;52.194;9.900;2023-04-12T12:15:03;98768.13;;;13.30;100.00
14232;BME280;7200;52.194;9.900;2023-04-12T12:17:28;98742.81;;;13.26;100.00
14232;BME280;7200;52.194;9.900;2023-04-12T12:19:56;98734.31;;;13.10;100.00
14232;BME280;7200;52.194;9.900;2023-04-12T12:22:22;98784.81;;;13.43;100.00
14232;BME280;7200;52.194;9.900;2023-04-12T12:24:55;98744.50;;;13.27;100.00
14232;BME280;7200;52.194;9.900;2023-04-12T12:27:23;98757.94;;;13.48;100.00
14232;BME280;7200;52.194;9.900;2023-04-12T12:29:53;98772.75;;;13.97;100.00
14232;BME280;7200;52.194;9.900;2023-04-12T12:32:19;98766.16;;;14.26;100.00
14232;BME280;7200;52.194;9.900;2023-04-12T12:34:55;98775.97;;;14.59;100.00
14232;BME280;7200;52.194;9.900;2023-04-12T12:37:27;98715.41;;;14.41;100.00
14232;BME280;7200;52.194;9.900;2023-04-12T12:40:09;98721.53;;;14.53;100.00
14232;BME280;7200;52.194;9.900;2023-04-12T12:42:51;98741.09;;;14.75;100.00
14232;BME280;7200;52.194;9.900;2023-04-12T12:45:20;98685.50;;;14.39;100.00
14232;BME280;7200;52.194;9.900;2023-04-12T12:47:46;98689.09;;;14.50;100.00
14232;BME280;7200;52.194;9.900;2023-04-12T12:50:13;98729.22;;;14.90;100.00
14232;BME280;7200;52.194;9.900;2023-04-12T12:52:41;98684.47;;;14.74;100.00
14232;BME280;7200;52.194;9.900;2023-04-12T12:55:06;98652.34;;;14.34;100.00
14232;BME280;7200;52.194;9.900;2023-04-12T12:57:32;98659.72;;;14.08;100.00
14232;BME280;7200;52.194;9.900;2023-04-12T12:59:59;98645.75;;;14.06;100.00
14232;BME280;7200;52.194;9.900;2023-04-12T13:02:25;98688.41;;;14.25;100.00
14232;BME280;7200;52.194;9.900;2023-04-12T13:04:50;98678.88;;;14.23;100.00
14232;BME280;7200;52.194;9.900;2023-04-12T13:07:16;98683.47;;;14.32;100.00
14232;BME280;7200;52.194;9.900;2023-04-12T13:09:41;98662.72;;;13.92;100.00
14232;BME280;7200;52.194;9.900;2023-04-12T13:12:07;98700.09;;;14.11;100.00
14232;BME280;7200;52.194;9.900;2023-04-12T13:14:32;98675.75;;;13.72;100.00
14232;BME280;7200;52.194;9.900;2023-04-12T13:16:57;98693.09;;;13.88;100.00
14232;BME280;7200;52.194;9.900;2023-04-12T13:19:22;98667.56;;;13.64;100.00
14232;BME280;7200;52.194;9.900;2023-04-12T13:21:48;98685.50;;;13.72;100.00
14232;BME280;7200;52.194;9.900;2023-04-12T13:24:13;98678.03;;;13.66;100.00
14232;BME280;7200;52.194;9.900;2023-04-12T13:26:38;98698.88;;;13.70;100.00
14232;BME280;7200;52.194;9.900;2023-04-12T13:29:04;98695.63;;;13.78;100.00